createdAt,value
2022-09-30T00:07:42.762Z,10.3
2022-09-30T00:22:53.019Z,10.3
2022-09-30T00:38:02.466Z,10.3
2022-09-30T00:53:12.218Z,10.2
2022-09-30T01:08:21.358Z,10.1
2022-09-30T01:23:30.791Z,10.2
2022-09-30T01:38:40.057Z,10.1
2022-09-30T01:53:49.201Z,9.9
2022-09-30T02:08:58.769Z,9.8
2022-09-30T02:24:08.384Z,9.6
2022-09-30T02:39:17.824Z,9.5
2022-09-30T02:54:27.532Z,9.3
2022-09-30T03:09:36.723Z,9.2
2022-09-30T03:24:46.468Z,9.2
2022-09-30T03:39:56.278Z,9
2022-09-30T03:55:06.205Z,8.9
2022-09-30T04:10:15.828Z,8.8
2022-09-30T04:25:25.558Z,8.7
2022-09-30T04:40:35.204Z,8.6
2022-09-30T04:55:44.694Z,8.4
2022-09-30T05:10:54.612Z,8.4
2022-09-30T05:26:03.646Z,8.3
2022-09-30T05:41:22.392Z,8.4
2022-09-30T05:56:31.765Z,8.3
2022-09-30T06:11:41.475Z,8.4
2022-09-30T06:26:50.979Z,8.5
2022-09-30T06:42:01.565Z,8.6
2022-09-30T06:57:11.255Z,8.7
2022-09-30T07:12:21.631Z,8.9
2022-09-30T07:27:31.340Z,9.1
2022-09-30T07:42:41.428Z,9.4
2022-09-30T07:57:51.818Z,9.7
2022-09-30T08:13:04.426Z,10.1
2022-09-30T08:28:16.649Z,10.6
2022-09-30T08:43:26.641Z,11
2022-09-30T08:58:36.930Z,11.5
2022-09-30T09:13:46.919Z,11.9
2022-09-30T09:28:56.468Z,12.3
2022-09-30T09:44:06.467Z,12.7
2022-09-30T09:59:18.096Z,13.1
2022-09-30T10:14:30.945Z,13.5
2022-09-30T10:29:40.406Z,13.7
2022-09-30T10:44:50.693Z,14.1
2022-09-30T11:00:03.621Z,14.3
2022-09-30T11:15:13.489Z,14.5
2022-09-30T11:30:23.417Z,14.7
2022-09-30T11:45:33.264Z,14.7
2022-09-30T12:00:47.217Z,16.4
2022-09-30T12:15:58.238Z,18
2022-09-30T12:31:07.519Z,17.8
2022-09-30T12:46:16.953Z,18
2022-09-30T13:01:27.174Z,18.1
2022-09-30T13:16:37.319Z,17.7
2022-09-30T13:31:46.875Z,17.6
2022-09-30T13:46:57.891Z,19.1
2022-09-30T14:02:06.715Z,17.1
2022-09-30T14:17:15.845Z,17
2022-09-30T14:32:25.533Z,17
2022-09-30T14:47:35.354Z,16.9
2022-09-30T15:02:44.879Z,16.9
2022-09-30T15:17:54.749Z,16.7
2022-09-30T15:33:03.874Z,16.5
2022-09-30T15:48:13.356Z,16.3
2022-09-30T16:03:22.407Z,16.1
2022-09-30T16:18:34.006Z,15.9
2022-09-30T16:33:44.291Z,15.5
2022-09-30T16:48:54.006Z,15
2022-09-30T17:04:03.409Z,14.7
2022-09-30T17:19:13.033Z,14.4
2022-09-30T17:34:22.261Z,14.1
2022-09-30T17:49:31.958Z,13.9
2022-09-30T18:04:41.160Z,13.6
2022-09-30T18:19:50.773Z,13.5
2022-09-30T18:35:03.281Z,13.2
2022-09-30T18:50:13.214Z,13.1
2022-09-30T19:05:22.670Z,12.9
2022-09-30T19:20:32.252Z,12.7
2022-09-30T19:35:41.714Z,12.6
2022-09-30T19:50:50.854Z,12.5
2022-09-30T20:05:59.920Z,12.4
2022-09-30T20:21:09.146Z,12.2
2022-09-30T20:36:18.713Z,12.1
2022-09-30T20:51:28.307Z,12.1
2022-09-30T21:06:38.359Z,12
2022-09-30T21:21:47.068Z,12
2022-09-30T21:36:56.113Z,12
2022-09-30T21:52:05.547Z,12
2022-09-30T22:07:15.021Z,12.1
2022-09-30T22:22:25.043Z,12.1
2022-09-30T22:37:34.305Z,12.1
2022-09-30T22:52:44.066Z,12
2022-09-30T23:07:53.504Z,11.9
2022-09-30T23:23:04.569Z,11.9
2022-09-30T23:38:14.001Z,11.9
2022-09-30T23:53:23.484Z,11.9
